Moshannon, Pennsylvania
Current Conditions -  °F | °C
As of 12:35 AM on Thursday 23 Oct 2014 (Local Time) from KUNV Reporting Station
Overcast Overcast  
Wind Chill: 42°   Ceiling: 1700
Heat Index: 47°   Visibility: 10mi
Dew Point: 41°   Wind: 10mph
Humidity: 80%   Direction: 340°NNW
Pressure: 30.02"   Gusts: NA
Location:  41.03°N, 78°W
Report Text: KUNV 230435Z AUTO 34009KT 10SM OVC017 08/05 A3002 RMK AO2 T00820050
Loading
Personal Weather Stations






























Interactive Weather Map
Tropical Storm Tracking
New forecast layout! Learn more

10-Day Weather Forecast

Advertisements
Track Severe Weather on mobile